createdAt,value
2023-08-02T00:01:09.475Z,1.50
2023-08-02T00:03:36.293Z,1.20
2023-08-02T00:06:03.336Z,1.58
2023-08-02T00:08:30.750Z,1.35
2023-08-02T00:10:57.861Z,1.30
2023-08-02T00:13:24.835Z,1.85
2023-08-02T00:15:53.740Z,1.42
2023-08-02T00:18:20.621Z,1.42
2023-08-02T00:20:48.569Z,1.33
2023-08-02T00:23:15.753Z,1.60
2023-08-02T00:25:42.540Z,1.65
2023-08-02T00:28:09.402Z,1.65
2023-08-02T00:30:48.223Z,2.45
2023-08-02T00:33:15.403Z,1.70
2023-08-02T00:35:51.578Z,1.45
2023-08-02T00:38:18.697Z,1.80
2023-08-02T00:40:45.513Z,1.92
2023-08-02T00:43:12.306Z,1.67
2023-08-02T00:45:39.118Z,2.10
2023-08-02T00:48:06.237Z,2.00
2023-08-02T00:50:36.652Z,1.63
2023-08-02T00:53:04.063Z,2.72
2023-08-02T00:55:30.815Z,2.25
2023-08-02T00:57:58.106Z,1.80
2023-08-02T01:00:25.079Z,1.88
2023-08-02T01:02:51.986Z,2.30
2023-08-02T01:05:25.157Z,2.03
2023-08-02T01:07:59.596Z,1.88
2023-08-02T01:10:51.157Z,2.17
2023-08-02T01:13:19.905Z,1.95
2023-08-02T01:15:48.990Z,2.40
2023-08-02T01:18:16.516Z,2.10
2023-08-02T01:20:43.418Z,1.90
2023-08-02T01:23:10.120Z,2.00
2023-08-02T01:25:37.832Z,2.30
2023-08-02T01:28:12.560Z,2.22
2023-08-02T01:30:40.396Z,1.63
2023-08-02T01:33:07.160Z,2.05
2023-08-02T01:35:35.628Z,1.90
2023-08-02T01:38:02.801Z,2.13
2023-08-02T01:40:29.526Z,2.30
2023-08-02T01:42:56.350Z,1.98
2023-08-02T01:45:23.574Z,2.15
2023-08-02T01:47:52.373Z,2.33
2023-08-02T01:50:19.219Z,2.22
2023-08-02T01:52:50.226Z,1.95
2023-08-02T01:55:19.331Z,2.17
2023-08-02T01:57:46.053Z,2.17
2023-08-02T02:00:13.849Z,2.45
2023-08-02T02:02:40.971Z,2.38
2023-08-02T02:05:08.029Z,2.03
2023-08-02T02:07:34.737Z,2.20
2023-08-02T02:10:01.468Z,2.08
2023-08-02T02:12:28.410Z,2.13
2023-08-02T02:14:55.239Z,2.85
2023-08-02T02:17:22.195Z,2.80
2023-08-02T02:19:48.850Z,3.15
2023-08-02T02:22:15.767Z,2.92
2023-08-02T02:24:42.656Z,2.78
2023-08-02T02:27:09.422Z,3.13
2023-08-02T02:29:36.211Z,3.45
2023-08-02T02:32:02.946Z,2.95
2023-08-02T02:34:29.615Z,2.50
2023-08-02T02:36:56.322Z,2.95
2023-08-02T02:39:23.059Z,3.40
2023-08-02T02:41:49.745Z,3.95
2023-08-02T02:44:16.719Z,3.10
2023-08-02T02:46:43.554Z,3.75
2023-08-02T02:49:10.658Z,3.03
2023-08-02T02:51:37.356Z,3.00
2023-08-02T02:54:04.118Z,2.88
2023-08-02T02:56:30.822Z,2.58
2023-08-02T02:58:57.536Z,3.05
2023-08-02T03:01:24.331Z,2.75
2023-08-02T03:03:51.032Z,3.00
2023-08-02T03:06:17.852Z,2.38
2023-08-02T03:08:44.764Z,2.50
2023-08-02T03:11:11.517Z,2.55
2023-08-02T03:13:38.487Z,2.72
2023-08-02T03:16:05.377Z,2.17
2023-08-02T03:18:32.168Z,3.25
2023-08-02T03:20:58.916Z,2.08
2023-08-02T03:23:25.578Z,2.85
2023-08-02T03:25:52.266Z,2.58
2023-08-02T03:28:18.943Z,2.47
2023-08-02T03:30:45.729Z,2.75
2023-08-02T03:33:12.735Z,2.08
2023-08-02T03:35:39.577Z,2.63
2023-08-02T03:38:06.237Z,2.42
2023-08-02T03:40:32.941Z,2.30
2023-08-02T03:42:59.621Z,2.55
2023-08-02T03:45:26.782Z,2.55
2023-08-02T03:47:53.754Z,2.35
2023-08-02T03:50:20.560Z,2.42
2023-08-02T03:52:47.286Z,2.47
2023-08-02T03:55:13.969Z,3.15
2023-08-02T03:57:41.167Z,3.17
2023-08-02T04:00:08.680Z,2.75
2023-08-02T04:02:35.388Z,3.65
2023-08-02T04:05:02.585Z,3.40
2023-08-02T04:07:29.261Z,3.35
2023-08-02T04:09:55.944Z,3.50
2023-08-02T04:12:22.832Z,3.97
2023-08-02T04:14:49.516Z,3.95
2023-08-02T04:17:16.220Z,4.20
2023-08-02T04:19:42.973Z,4.28
2023-08-02T04:22:09.707Z,3.65
2023-08-02T04:24:36.397Z,4.47
2023-08-02T04:27:03.260Z,4.07
2023-08-02T04:29:29.962Z,3.22
2023-08-02T04:31:56.901Z,4.60
2023-08-02T04:34:23.714Z,4.40
2023-08-02T04:36:50.420Z,4.45
2023-08-02T04:39:17.210Z,4.57
2023-08-02T04:41:44.154Z,4.28
2023-08-02T04:44:10.862Z,6.22
2023-08-02T04:46:37.556Z,6.10
2023-08-02T04:49:04.602Z,4.20
2023-08-02T04:51:32.863Z,4.15
2023-08-02T04:53:59.577Z,3.88
2023-08-02T04:56:26.325Z,3.67
2023-08-02T04:58:52.970Z,4.03
2023-08-02T05:01:19.702Z,4.93
2023-08-02T05:03:46.657Z,4.03
2023-08-02T05:06:13.530Z,4.30
2023-08-02T05:08:40.350Z,5.78
2023-08-02T05:11:08.188Z,5.63
2023-08-02T05:13:35.313Z,5.10
2023-08-02T05:16:02.358Z,6.10
2023-08-02T05:18:29.131Z,4.60
2023-08-02T05:20:56.095Z,4.72
2023-08-02T05:23:23.103Z,4.78
2023-08-02T05:25:49.871Z,5.10
2023-08-02T05:28:16.684Z,4.78
2023-08-02T05:30:43.398Z,4.32
2023-08-02T05:33:10.093Z,5.32
2023-08-02T05:35:36.842Z,5.38
2023-08-02T05:38:03.648Z,5.35
2023-08-02T05:40:30.387Z,4.70
2023-08-02T05:42:58.442Z,5.32
2023-08-02T05:45:25.377Z,5.15
2023-08-02T05:47:52.614Z,5.28
2023-08-02T05:50:19.442Z,4.75
2023-08-02T05:52:46.167Z,5.75
2023-08-02T05:55:13.546Z,5.78
2023-08-02T05:57:40.412Z,5.03
2023-08-02T06:00:09.661Z,5.10
2023-08-02T06:02:37.176Z,5.72
2023-08-02T06:05:04.122Z,4.90
2023-08-02T06:07:30.784Z,5.00
2023-08-02T06:09:57.475Z,4.30
2023-08-02T06:12:24.540Z,5.07
2023-08-02T06:14:51.307Z,4.40
2023-08-02T06:17:18.291Z,4.65
2023-08-02T06:19:45.280Z,4.25
2023-08-02T06:22:12.007Z,5.00
2023-08-02T06:24:38.919Z,4.10
2023-08-02T06:27:05.880Z,4.20
2023-08-02T06:29:32.587Z,4.20
2023-08-02T06:31:59.272Z,3.95
2023-08-02T06:34:25.997Z,4.57
2023-08-02T06:36:52.741Z,4.38
2023-08-02T06:39:19.453Z,4.28
2023-08-02T06:41:46.144Z,4.22
2023-08-02T06:44:13.239Z,5.18
2023-08-02T06:46:41.754Z,4.28
2023-08-02T06:49:08.544Z,5.70
2023-08-02T06:51:35.278Z,5.00
2023-08-02T06:54:02.006Z,4.88
2023-08-02T06:56:28.751Z,4.90
2023-08-02T06:58:55.392Z,4.30
2023-08-02T07:01:23.901Z,4.65
2023-08-02T07:03:51.215Z,4.50
2023-08-02T07:06:20.000Z,4.82
2023-08-02T07:08:47.460Z,5.10
2023-08-02T07:11:26.191Z,5.43
2023-08-02T07:14:00.996Z,5.07
2023-08-02T07:16:27.778Z,5.25
2023-08-02T07:18:54.482Z,5.13
2023-08-02T07:21:21.363Z,5.63
2023-08-02T07:23:48.070Z,5.43
2023-08-02T07:26:14.854Z,5.40
2023-08-02T07:28:41.527Z,5.60
2023-08-02T07:31:13.321Z,5.10
2023-08-02T07:33:40.805Z,4.97
2023-08-02T07:36:18.234Z,4.90
2023-08-02T07:38:45.860Z,5.00
2023-08-02T07:41:12.793Z,4.70
2023-08-02T07:43:39.521Z,4.80
2023-08-02T07:46:07.616Z,5.32
2023-08-02T07:48:34.332Z,5.10
2023-08-02T07:51:05.252Z,4.57
2023-08-02T07:53:31.930Z,5.25
2023-08-02T07:56:03.013Z,5.07
2023-08-02T07:58:30.105Z,5.65
2023-08-02T08:00:56.813Z,5.65
2023-08-02T08:03:23.947Z,5.63
2023-08-02T08:05:50.670Z,4.93
2023-08-02T08:08:18.121Z,4.88
2023-08-02T08:10:53.113Z,3.63
2023-08-02T08:13:20.040Z,7.22
2023-08-02T08:15:47.312Z,4.70
2023-08-02T08:18:14.045Z,4.00
2023-08-02T08:20:40.748Z,3.80
2023-08-02T08:23:07.531Z,3.63
2023-08-02T08:25:34.222Z,4.45
2023-08-02T08:28:00.956Z,4.43
2023-08-02T08:30:27.729Z,4.32
2023-08-02T08:32:54.590Z,4.45
2023-08-02T08:35:21.347Z,4.32
2023-08-02T08:37:50.454Z,4.25
2023-08-02T08:40:21.473Z,3.53
2023-08-02T08:42:52.949Z,4.40
2023-08-02T08:45:21.951Z,4.53
2023-08-02T08:47:50.247Z,4.40
2023-08-02T08:50:18.517Z,3.90
2023-08-02T08:52:52.949Z,3.63
2023-08-02T08:55:20.356Z,3.05
2023-08-02T08:57:47.159Z,3.60
2023-08-02T09:00:17.372Z,3.53
2023-08-02T09:02:45.211Z,3.35
2023-08-02T09:05:11.961Z,3.75
2023-08-02T09:07:38.689Z,3.63
2023-08-02T09:10:06.478Z,2.35
2023-08-02T09:12:43.792Z,1.45
2023-08-02T09:15:10.704Z,1.55
2023-08-02T09:17:52.420Z,2.10
2023-08-02T09:20:24.447Z,1.73
2023-08-02T09:22:51.576Z,2.03
2023-08-02T09:25:29.480Z,3.13
2023-08-02T09:27:59.789Z,2.63
2023-08-02T09:30:31.924Z,2.83
2023-08-02T09:33:03.930Z,2.83
2023-08-02T09:35:54.709Z,3.17
2023-08-02T09:38:21.581Z,3.20
2023-08-02T09:43:20.247Z,2.33
2023-08-02T09:45:47.123Z,2.42
2023-08-02T09:48:14.093Z,2.30
2023-08-02T09:51:04.976Z,3.22
2023-08-02T09:53:32.889Z,1.73
2023-08-02T09:56:01.932Z,1.60
2023-08-02T09:58:31.461Z,2.00
2023-08-02T10:00:59.300Z,1.83
2023-08-02T10:03:28.157Z,1.33
2023-08-02T10:05:59.563Z,1.52
2023-08-02T10:08:29.545Z,1.60
2023-08-02T10:10:56.857Z,1.63
2023-08-02T10:13:27.656Z,2.10
2023-08-02T10:15:56.707Z,2.05
2023-08-02T10:18:26.187Z,2.08
2023-08-02T10:20:54.226Z,1.63
2023-08-02T10:23:20.926Z,1.63
2023-08-02T10:25:48.523Z,1.50
2023-08-02T10:28:16.244Z,1.73
2023-08-02T10:30:43.388Z,1.55
2023-08-02T10:33:15.598Z,1.85
2023-08-02T10:35:56.433Z,1.08
2023-08-02T10:38:28.063Z,1.52
2023-08-02T10:41:08.926Z,1.48
2023-08-02T10:43:56.185Z,1.30
2023-08-02T10:46:24.623Z,1.90
2023-08-02T10:49:18.759Z,1.42
2023-08-02T10:51:46.728Z,1.40
2023-08-02T10:54:24.445Z,1.48
2023-08-02T10:56:58.371Z,1.20
2023-08-02T10:59:25.089Z,1.40
2023-08-02T11:02:02.197Z,1.48
2023-08-02T11:04:33.941Z,1.50
2023-08-02T11:07:25.649Z,1.42
2023-08-02T11:09:55.834Z,2.13
2023-08-02T11:12:23.898Z,1.60
2023-08-02T11:14:53.390Z,2.25
2023-08-02T11:20:09.788Z,1.40
2023-08-02T11:22:40.711Z,1.25
2023-08-02T11:25:08.249Z,1.13
2023-08-02T11:30:09.324Z,1.23
2023-08-02T11:32:46.725Z,1.10
2023-08-02T11:35:20.611Z,1.48
2023-08-02T11:37:47.848Z,1.30
2023-08-02T11:42:49.844Z,1.30
2023-08-02T11:45:28.779Z,0.90
2023-08-02T11:48:00.289Z,1.20
2023-08-02T11:50:36.557Z,1.13
2023-08-02T11:53:08.337Z,1.27
2023-08-02T11:55:37.373Z,1.10
2023-08-02T11:58:06.627Z,1.80
2023-08-02T12:00:34.871Z,1.48
2023-08-02T12:03:15.652Z,1.48
2023-08-02T12:05:44.933Z,1.08
2023-08-02T12:08:14.377Z,0.90
2023-08-02T12:10:42.280Z,1.20
2023-08-02T12:13:16.447Z,0.90
2023-08-02T12:16:02.942Z,1.30
2023-08-02T12:18:29.728Z,1.30
2023-08-02T12:20:56.667Z,1.13
2023-08-02T12:23:33.633Z,1.30
2023-08-02T12:26:00.986Z,1.10
2023-08-02T12:28:43.697Z,1.02
2023-08-02T12:31:10.579Z,1.00
2023-08-02T12:33:38.342Z,1.00
2023-08-02T12:36:05.527Z,1.00
2023-08-02T12:38:32.826Z,1.00
2023-08-02T12:41:00.917Z,1.08
2023-08-02T12:43:28.358Z,1.05
2023-08-02T12:45:55.354Z,1.30
2023-08-02T12:48:22.141Z,0.80
2023-08-02T12:50:48.961Z,1.15
2023-08-02T12:53:15.634Z,1.27
2023-08-02T12:55:42.422Z,0.90
2023-08-02T12:58:09.185Z,1.42
2023-08-02T13:00:35.982Z,0.90
2023-08-02T13:03:02.852Z,1.20
2023-08-02T13:05:29.566Z,1.23
2023-08-02T13:07:56.689Z,1.08
2023-08-02T13:10:23.688Z,1.25
2023-08-02T13:12:50.481Z,1.00
2023-08-02T13:15:19.661Z,1.27
2023-08-02T13:17:48.985Z,1.00
2023-08-02T13:20:15.997Z,1.08
2023-08-02T13:22:42.821Z,1.00
2023-08-02T13:25:09.802Z,1.05
2023-08-02T13:27:36.490Z,1.17
2023-08-02T13:30:04.158Z,1.85
2023-08-02T13:32:35.132Z,1.08
2023-08-02T13:35:06.728Z,1.05
2023-08-02T13:37:34.418Z,0.95
2023-08-02T13:40:01.978Z,1.30
2023-08-02T13:42:29.275Z,1.13
2023-08-02T13:44:56.318Z,1.40
2023-08-02T13:47:23.124Z,1.20
2023-08-02T13:49:50.092Z,1.33
2023-08-02T13:52:17.114Z,1.05
2023-08-02T13:54:44.102Z,1.48
2023-08-02T13:57:10.946Z,1.08
2023-08-02T13:59:39.621Z,1.30
2023-08-02T14:02:07.839Z,1.50
2023-08-02T14:04:35.066Z,1.40
2023-08-02T14:07:02.075Z,1.23
2023-08-02T14:09:28.935Z,1.63
2023-08-02T14:11:55.616Z,1.55
2023-08-02T14:14:22.282Z,0.93
2023-08-02T14:16:49.279Z,1.17
2023-08-02T14:19:16.216Z,1.50
2023-08-02T14:21:43.034Z,1.45
2023-08-02T14:24:10.108Z,1.10
2023-08-02T14:26:36.983Z,1.48
2023-08-02T14:29:03.671Z,1.48
2023-08-02T14:31:30.363Z,1.27
2023-08-02T14:33:57.079Z,1.42
2023-08-02T14:36:23.841Z,1.40
2023-08-02T14:38:50.643Z,1.30
2023-08-02T14:41:17.489Z,1.95
2023-08-02T14:43:44.184Z,1.42
2023-08-02T14:46:11.459Z,1.27
2023-08-02T14:48:38.208Z,1.00
2023-08-02T14:51:04.916Z,1.10
2023-08-02T14:53:31.815Z,1.30
2023-08-02T14:55:58.537Z,1.60
2023-08-02T14:58:25.410Z,1.75
2023-08-02T15:00:53.319Z,2.17
2023-08-02T15:03:20.293Z,1.90
2023-08-02T15:05:47.153Z,1.60
2023-08-02T15:08:13.901Z,1.83
2023-08-02T15:10:40.644Z,1.48
2023-08-02T15:13:07.438Z,1.95
2023-08-02T15:15:34.240Z,1.73
2023-08-02T15:18:01.102Z,1.40
2023-08-02T15:20:27.935Z,1.00
2023-08-02T15:22:54.734Z,1.20
2023-08-02T15:25:21.439Z,1.33
2023-08-02T15:27:48.166Z,1.17
2023-08-02T15:30:15.553Z,1.40
2023-08-02T15:32:42.604Z,1.25
2023-08-02T15:35:09.481Z,1.23
2023-08-02T15:37:36.323Z,1.52
2023-08-02T15:40:04.043Z,1.55
2023-08-02T15:42:31.026Z,1.70
2023-08-02T15:44:58.632Z,1.52
2023-08-02T15:47:27.006Z,1.60
2023-08-02T15:49:53.858Z,1.15
2023-08-02T15:52:20.541Z,1.70
2023-08-02T15:54:47.260Z,2.13
2023-08-02T15:57:14.012Z,2.33
2023-08-02T15:59:40.662Z,2.67
2023-08-02T16:02:07.367Z,2.67
2023-08-02T16:04:34.278Z,2.10
2023-08-02T16:07:01.053Z,2.97
2023-08-02T16:09:27.749Z,2.47
2023-08-02T16:11:54.464Z,2.40
2023-08-02T16:14:21.303Z,2.53
2023-08-02T16:16:48.048Z,2.78
2023-08-02T16:19:14.838Z,2.70
2023-08-02T16:21:41.527Z,2.10
2023-08-02T16:24:08.222Z,2.85
2023-08-02T16:26:34.976Z,2.65
2023-08-02T16:29:01.996Z,2.50
2023-08-02T16:31:28.765Z,2.67
2023-08-02T16:33:55.466Z,2.55
2023-08-02T16:36:22.198Z,2.60
2023-08-02T16:38:48.878Z,2.80
2023-08-02T16:41:16.087Z,2.35
2023-08-02T16:43:43.000Z,2.30
2023-08-02T16:46:09.764Z,2.70
2023-08-02T16:48:36.572Z,2.78
2023-08-02T16:51:03.283Z,2.63
2023-08-02T16:53:30.076Z,2.90
2023-08-02T16:55:56.844Z,2.50
2023-08-02T16:58:23.740Z,2.53
2023-08-02T17:00:53.258Z,2.70
2023-08-02T17:03:19.973Z,2.80
2023-08-02T17:05:47.841Z,2.45
2023-08-02T17:08:14.538Z,2.88
2023-08-02T17:10:41.244Z,2.67
2023-08-02T17:13:07.952Z,2.75
2023-08-02T17:15:37.044Z,2.80
2023-08-02T17:18:05.008Z,3.17
2023-08-02T17:20:32.897Z,2.50
2023-08-02T17:23:00.136Z,2.80
2023-08-02T17:25:27.586Z,3.45
2023-08-02T17:27:54.302Z,3.00
2023-08-02T17:30:21.105Z,3.05
2023-08-02T17:32:48.018Z,2.97
2023-08-02T17:35:14.793Z,3.30
2023-08-02T17:37:41.782Z,2.60
2023-08-02T17:40:12.213Z,3.60
2023-08-02T17:42:38.930Z,3.28
2023-08-02T17:45:06.883Z,3.42
2023-08-02T17:47:33.890Z,3.53
2023-08-02T17:50:00.594Z,3.10
2023-08-02T17:52:27.356Z,3.42
2023-08-02T17:54:54.202Z,3.15
2023-08-02T17:57:20.947Z,3.92
2023-08-02T17:59:55.682Z,3.60
2023-08-02T18:02:23.673Z,3.60
2023-08-02T18:04:55.422Z,3.28
2023-08-02T18:07:22.278Z,3.33
2023-08-02T18:09:48.984Z,3.30
2023-08-02T18:12:15.699Z,3.20
2023-08-02T18:14:42.359Z,4.03
2023-08-02T18:17:09.126Z,4.10
2023-08-02T18:19:36.746Z,4.10
2023-08-02T18:22:03.846Z,3.75
2023-08-02T18:24:37.033Z,4.03
2023-08-02T18:27:06.424Z,4.05
2023-08-02T18:29:33.443Z,4.13
2023-08-02T18:32:00.293Z,3.88
2023-08-02T18:34:29.040Z,3.40
2023-08-02T18:36:55.790Z,3.47
2023-08-02T18:39:22.601Z,3.92
2023-08-02T18:41:49.477Z,3.58
2023-08-02T18:44:16.544Z,3.95
2023-08-02T18:46:43.326Z,5.75
2023-08-02T18:49:10.300Z,5.60
2023-08-02T18:51:36.993Z,4.78
2023-08-02T18:54:05.102Z,4.72
2023-08-02T18:56:31.970Z,4.43
2023-08-02T18:59:01.077Z,5.00
2023-08-02T19:01:28.554Z,4.78
2023-08-02T19:03:56.997Z,7.05
2023-08-02T19:06:23.912Z,6.05
2023-08-02T19:08:51.393Z,5.50
2023-08-02T19:11:23.822Z,6.35
2023-08-02T19:13:53.738Z,6.47
2023-08-02T19:16:20.647Z,5.80
2023-08-02T19:18:47.646Z,6.50
2023-08-02T19:21:15.809Z,6.07
2023-08-02T19:23:45.016Z,6.32
2023-08-02T19:26:22.574Z,6.60
2023-08-02T19:28:50.907Z,7.38
2023-08-02T19:31:20.104Z,6.65
2023-08-02T19:33:47.264Z,7.00
2023-08-02T19:36:23.236Z,7.28
2023-08-02T19:38:50.440Z,7.63
2023-08-02T19:41:25.041Z,7.43
2023-08-02T19:43:51.778Z,7.18
2023-08-02T19:46:20.654Z,7.63
2023-08-02T19:48:47.339Z,7.32
2023-08-02T19:51:14.871Z,7.43
2023-08-02T19:53:45.916Z,6.22
2023-08-02T19:56:20.842Z,5.82
2023-08-02T19:58:47.741Z,6.10
2023-08-02T20:01:14.449Z,5.70
2023-08-02T20:03:41.218Z,5.82
2023-08-02T20:06:09.287Z,6.18
2023-08-02T20:08:36.554Z,6.15
2023-08-02T20:11:07.535Z,6.13
2023-08-02T20:13:42.201Z,6.13
2023-08-02T20:16:21.258Z,5.28
2023-08-02T20:18:49.658Z,5.47
2023-08-02T20:23:47.594Z,6.22
2023-08-02T20:26:15.788Z,6.57
2023-08-02T20:28:46.527Z,6.63
2023-08-02T20:31:19.444Z,6.70
2023-08-02T20:33:48.215Z,6.32
2023-08-02T20:36:16.128Z,6.95
2023-08-02T20:38:46.734Z,6.80
2023-08-02T20:41:18.342Z,6.60
2023-08-02T20:43:49.849Z,7.35
2023-08-02T20:46:20.588Z,7.15
2023-08-02T20:48:48.662Z,6.65
2023-08-02T20:51:16.255Z,7.55
2023-08-02T20:53:43.463Z,6.70
2023-08-02T20:56:10.893Z,6.38
2023-08-02T20:58:38.721Z,6.90
2023-08-02T21:01:06.750Z,7.13
2023-08-02T21:03:37.816Z,6.70
2023-08-02T21:06:06.237Z,7.25
2023-08-02T21:08:34.295Z,6.65
2023-08-02T21:11:03.043Z,6.35
2023-08-02T21:13:30.532Z,6.97
2023-08-02T21:15:57.299Z,6.82
2023-08-02T21:18:29.799Z,6.38
2023-08-02T21:20:57.569Z,7.20
2023-08-02T21:23:24.592Z,6.32
2023-08-02T21:25:53.917Z,6.45
2023-08-02T21:28:25.942Z,6.40
2023-08-02T21:31:00.497Z,6.45
2023-08-02T21:33:32.087Z,6.28
2023-08-02T21:36:00.197Z,6.22
2023-08-02T21:38:35.851Z,6.40
2023-08-02T21:41:05.202Z,6.10
2023-08-02T21:43:34.372Z,6.78
2023-08-02T21:46:06.597Z,6.22
2023-08-02T21:48:44.768Z,6.30
2023-08-02T21:51:12.489Z,6.60
2023-08-02T21:53:39.464Z,6.47
2023-08-02T21:56:09.864Z,6.65
2023-08-02T21:58:38.790Z,6.53
2023-08-02T22:01:06.070Z,6.72
2023-08-02T22:03:34.232Z,6.60
2023-08-02T22:06:03.629Z,6.35
2023-08-02T22:08:48.366Z,6.47
2023-08-02T22:11:16.781Z,5.82
2023-08-02T22:13:47.809Z,6.13
2023-08-02T22:16:16.251Z,6.38
2023-08-02T22:18:43.898Z,6.15
2023-08-02T22:21:11.058Z,6.07
2023-08-02T22:23:37.785Z,6.80
2023-08-02T22:26:05.313Z,6.43
2023-08-02T22:28:32.978Z,6.65
2023-08-02T22:30:59.721Z,6.28
2023-08-02T22:33:26.502Z,5.45
2023-08-02T22:35:53.170Z,6.40
2023-08-02T22:38:22.894Z,6.38
2023-08-02T22:40:49.717Z,6.55
2023-08-02T22:43:16.756Z,7.32
2023-08-02T22:45:43.500Z,6.80
2023-08-02T22:50:55.496Z,6.80
2023-08-02T22:53:23.552Z,7.07
2023-08-02T22:55:50.614Z,7.07
2023-08-02T22:58:17.303Z,6.95
2023-08-02T23:00:44.091Z,6.40
2023-08-02T23:03:38.569Z,7.20
2023-08-02T23:06:06.304Z,7.00
2023-08-02T23:08:37.691Z,6.55
2023-08-02T23:11:05.288Z,6.80
2023-08-02T23:13:32.395Z,6.75
2023-08-02T23:15:59.093Z,6.07
2023-08-02T23:18:25.790Z,6.55
2023-08-02T23:20:53.889Z,6.43
2023-08-02T23:23:26.692Z,6.78
2023-08-02T23:26:01.551Z,6.47
2023-08-02T23:28:30.032Z,6.10
2023-08-02T23:30:57.657Z,6.25
2023-08-02T23:33:24.505Z,6.05
2023-08-02T23:35:51.332Z,6.60
2023-08-02T23:38:18.140Z,6.28
2023-08-02T23:40:44.901Z,7.18
2023-08-02T23:43:13.066Z,7.03
2023-08-02T23:45:41.342Z,6.78
2023-08-02T23:48:08.137Z,7.70
2023-08-02T23:50:35.557Z,7.35
2023-08-02T23:53:03.574Z,7.15
2023-08-02T23:55:30.634Z,6.80
2023-08-02T23:57:57.305Z,6.47
